Terminal Aerodrome Forecast
Issued by NWS Wakefield, VA

Home | Current Version | Previous Version | Text Only | Print | Product List | Glossary On
Versions: 1 2 3 4 5 6 7 8 9 10 11 12 13 14 15
000
FTUS41 KAKQ 261740
TAFRIC
TAF
KRIC 261740Z 2618/2718 02011KT P6SM OVC015
     FM262200 02010KT P6SM BKN025
     FM270800 36012KT P6SM BKN025
     FM271500 01012G20KT P6SM SCT035=

USA.gov is the U.S. government's official web portal to all federal, state and local government web resources and services.